createdAt,value
2023-01-01T00:00:52.851Z,9.55
2023-01-01T00:03:21.313Z,9.18
2023-01-01T00:05:51.330Z,12.02
2023-01-01T00:08:19.779Z,8.80
2023-01-01T00:10:48.096Z,9.43
2023-01-01T00:13:16.660Z,10.60
2023-01-01T00:15:45.249Z,9.00
2023-01-01T00:18:15.878Z,10.45
2023-01-01T00:20:44.406Z,11.00
2023-01-01T00:23:14.393Z,10.40
2023-01-01T00:25:44.701Z,9.60
2023-01-01T00:28:13.140Z,18.15
2023-01-01T00:30:42.704Z,12.43
2023-01-01T00:33:14.118Z,12.75
2023-01-01T00:35:42.586Z,8.93
2023-01-01T00:38:11.100Z,9.27
2023-01-01T00:40:40.799Z,9.63
2023-01-01T00:43:09.351Z,8.68
2023-01-01T00:45:38.113Z,7.80
2023-01-01T00:48:07.489Z,8.15
2023-01-01T00:50:35.939Z,7.47
2023-01-01T00:53:04.456Z,6.85
2023-01-01T00:55:32.820Z,7.18
2023-01-01T00:58:02.729Z,6.38
2023-01-01T01:00:31.194Z,6.32
2023-01-01T01:03:00.125Z,6.35
2023-01-01T01:05:28.610Z,6.57
2023-01-01T01:07:57.046Z,6.18
2023-01-01T01:10:26.190Z,7.00
2023-01-01T01:12:54.638Z,6.47
2023-01-01T01:15:24.464Z,6.20
2023-01-01T01:17:52.854Z,6.97
2023-01-01T01:20:21.512Z,6.40
2023-01-01T01:22:49.869Z,6.15
2023-01-01T01:25:18.465Z,6.82
2023-01-01T01:27:47.332Z,6.85
2023-01-01T01:30:15.932Z,6.28
2023-01-01T01:32:45.754Z,6.47
2023-01-01T01:35:14.125Z,5.90
2023-01-01T01:37:42.379Z,6.93
2023-01-01T01:40:16.607Z,6.50
2023-01-01T01:42:48.177Z,5.80
2023-01-01T01:45:18.411Z,5.80
2023-01-01T01:47:52.261Z,5.97
2023-01-01T01:50:27.192Z,6.82
2023-01-01T01:53:06.127Z,6.13
2023-01-01T01:55:39.016Z,7.07
2023-01-01T01:58:10.554Z,5.88
2023-01-01T02:00:46.024Z,6.85
2023-01-01T02:03:18.983Z,6.25
2023-01-01T02:05:49.127Z,6.25
2023-01-01T02:08:18.019Z,6.40
2023-01-01T02:10:46.268Z,6.15
2023-01-01T02:13:17.128Z,6.45
2023-01-01T02:15:53.056Z,6.63
2023-01-01T02:18:34.799Z,6.85
2023-01-01T02:21:08.197Z,6.25
2023-01-01T02:24:22.223Z,6.03
2023-01-01T02:27:00.204Z,5.75
2023-01-01T02:29:41.796Z,6.82
2023-01-01T02:32:12.413Z,6.25
2023-01-01T02:34:45.211Z,6.10
2023-01-01T02:37:17.245Z,5.85
2023-01-01T02:39:51.939Z,6.70
2023-01-01T02:42:22.495Z,6.28
2023-01-01T02:44:55.784Z,6.90
2023-01-01T02:47:24.864Z,6.57
2023-01-01T02:50:00.801Z,7.07
2023-01-01T02:53:01.097Z,6.35
2023-01-01T02:55:38.762Z,6.15
2023-01-01T02:58:37.078Z,6.75
2023-01-01T03:01:14.958Z,5.75
2023-01-01T03:03:56.220Z,5.93
2023-01-01T03:06:39.567Z,6.20
2023-01-01T03:09:18.097Z,5.90
2023-01-01T03:11:59.330Z,6.32
2023-01-01T03:14:39.596Z,5.30
2023-01-01T03:17:15.174Z,6.35
2023-01-01T03:19:47.456Z,5.97
2023-01-01T03:22:21.152Z,6.05
2023-01-01T03:24:53.968Z,4.95
2023-01-01T03:27:28.717Z,5.68
2023-01-01T03:30:08.525Z,5.10
2023-01-01T03:33:02.513Z,5.30
2023-01-01T03:35:37.096Z,5.78
2023-01-01T03:38:13.124Z,5.28
2023-01-01T03:40:49.203Z,5.80
2023-01-01T03:43:22.413Z,5.63
2023-01-01T03:45:59.583Z,5.93
2023-01-01T03:49:00.273Z,5.45
2023-01-01T03:51:49.593Z,4.97
2023-01-01T03:54:37.117Z,5.25
2023-01-01T03:57:17.406Z,5.47
2023-01-01T04:00:02.590Z,5.05
2023-01-01T04:02:43.999Z,5.05
2023-01-01T04:05:42.594Z,5.35
2023-01-01T04:08:11.951Z,4.95
2023-01-01T04:10:43.750Z,4.65
2023-01-01T04:13:19.726Z,5.50
2023-01-01T04:15:48.160Z,5.65
2023-01-01T04:18:16.735Z,5.13
2023-01-01T04:20:50.163Z,5.15
2023-01-01T04:23:18.665Z,5.30
2023-01-01T04:25:49.879Z,5.68
2023-01-01T04:28:21.631Z,5.50
2023-01-01T04:33:22.133Z,5.30
2023-01-01T04:35:52.307Z,4.90
2023-01-01T04:38:23.150Z,5.15
2023-01-01T04:41:00.174Z,5.60
2023-01-01T04:43:30.184Z,5.72
2023-01-01T04:45:59.381Z,4.75
2023-01-01T04:48:29.527Z,4.72
2023-01-01T04:51:04.479Z,4.90
2023-01-01T04:53:34.597Z,5.25
2023-01-01T04:56:06.168Z,6.03
2023-01-01T04:58:41.776Z,4.63
2023-01-01T05:01:18.299Z,5.05
2023-01-01T05:03:47.380Z,5.28
2023-01-01T05:06:21.996Z,4.45
2023-01-01T05:08:51.912Z,5.28
2023-01-01T05:11:25.122Z,5.22
2023-01-01T05:13:55.204Z,4.80
2023-01-01T05:19:14.308Z,5.50
2023-01-01T05:21:45.827Z,5.82
2023-01-01T05:24:18.919Z,4.78
2023-01-01T05:26:47.473Z,4.40
2023-01-01T05:29:17.262Z,5.07
2023-01-01T05:31:46.843Z,5.55
2023-01-01T05:34:15.275Z,4.35
2023-01-01T05:36:59.416Z,4.38
2023-01-01T05:39:27.973Z,4.70
2023-01-01T05:41:56.474Z,4.97
2023-01-01T05:44:30.521Z,5.15
2023-01-01T05:47:01.301Z,4.50
2023-01-01T05:49:31.569Z,4.35
2023-01-01T05:52:02.655Z,4.93
2023-01-01T05:54:31.133Z,4.95
2023-01-01T05:57:02.410Z,5.05
2023-01-01T05:59:30.800Z,4.85
2023-01-01T06:02:20.058Z,4.68
2023-01-01T06:04:48.810Z,4.97
2023-01-01T06:07:23.926Z,5.25
2023-01-01T06:09:52.604Z,5.10
2023-01-01T06:12:31.978Z,5.20
2023-01-01T06:15:02.156Z,5.55
2023-01-01T06:17:38.562Z,4.93
2023-01-01T06:20:16.245Z,4.55
2023-01-01T06:22:55.645Z,4.15
2023-01-01T06:25:24.009Z,4.63
2023-01-01T06:28:16.162Z,5.05
2023-01-01T06:31:09.954Z,5.43
2023-01-01T06:33:40.251Z,4.95
2023-01-01T06:36:14.649Z,4.47
2023-01-01T06:39:03.746Z,5.22
2023-01-01T06:42:05.007Z,5.15
2023-01-01T06:44:58.385Z,4.70
2023-01-01T06:47:34.637Z,5.20
2023-01-01T06:50:15.654Z,5.60
2023-01-01T06:53:18.775Z,5.50
2023-01-01T06:56:03.482Z,5.18
2023-01-01T06:58:39.643Z,5.30
2023-01-01T07:01:13.374Z,5.00
2023-01-01T07:03:53.514Z,4.93
2023-01-01T07:06:37.217Z,5.40
2023-01-01T07:09:20.020Z,4.47
2023-01-01T07:11:52.633Z,5.00
2023-01-01T07:14:29.452Z,5.43
2023-01-01T07:17:00.725Z,5.30
2023-01-01T07:19:38.540Z,4.78
2023-01-01T07:22:17.224Z,4.82
2023-01-01T07:24:45.795Z,4.60
2023-01-01T07:27:23.681Z,4.97
2023-01-01T07:30:04.378Z,4.28
2023-01-01T07:32:32.977Z,4.82
2023-01-01T07:35:05.256Z,5.32
2023-01-01T07:37:33.878Z,4.60
2023-01-01T07:40:09.054Z,4.97
2023-01-01T07:42:44.463Z,4.80
2023-01-01T07:45:16.654Z,4.75
2023-01-01T07:47:45.101Z,4.45
2023-01-01T07:50:18.115Z,5.57
2023-01-01T07:52:46.758Z,4.97
2023-01-01T07:55:19.998Z,4.53
2023-01-01T07:57:52.284Z,5.20
2023-01-01T08:00:22.063Z,4.93
2023-01-01T08:02:51.817Z,5.00
2023-01-01T08:05:26.495Z,5.00
2023-01-01T08:07:59.771Z,4.40
2023-01-01T08:10:28.216Z,5.05
2023-01-01T08:13:07.666Z,4.00
2023-01-01T08:15:37.286Z,4.53
2023-01-01T08:18:07.030Z,4.70
2023-01-01T08:20:38.425Z,3.83
2023-01-01T08:23:07.786Z,4.20
2023-01-01T08:25:41.504Z,4.20
2023-01-01T08:28:12.204Z,4.40
2023-01-01T08:30:46.390Z,4.30
2023-01-01T08:33:14.828Z,4.28
2023-01-01T08:35:51.938Z,4.60
2023-01-01T08:38:36.861Z,4.50
2023-01-01T08:41:12.627Z,3.88
2023-01-01T08:43:50.983Z,4.70
2023-01-01T08:46:22.652Z,4.63
2023-01-01T08:48:53.697Z,4.38
2023-01-01T08:51:22.238Z,3.85
2023-01-01T08:53:51.473Z,4.13
2023-01-01T08:56:22.058Z,4.88
2023-01-01T08:58:58.746Z,4.30
2023-01-01T09:01:30.706Z,4.68
2023-01-01T09:04:02.042Z,5.20
2023-01-01T09:06:41.982Z,4.30
2023-01-01T09:09:10.588Z,4.07
2023-01-01T09:11:39.105Z,4.85
2023-01-01T09:14:17.907Z,3.88
2023-01-01T09:16:46.490Z,4.15
2023-01-01T09:19:17.941Z,4.18
2023-01-01T09:21:46.486Z,3.65
2023-01-01T09:24:21.062Z,4.85
2023-01-01T09:27:05.820Z,3.33
2023-01-01T09:30:07.393Z,3.90
2023-01-01T09:32:35.907Z,4.45
2023-01-01T09:35:04.965Z,3.80
2023-01-01T09:37:35.664Z,4.45
2023-01-01T09:40:04.532Z,4.43
2023-01-01T09:42:44.231Z,3.60
2023-01-01T09:45:31.205Z,4.32
2023-01-01T09:48:08.254Z,3.47
2023-01-01T09:50:43.711Z,3.47
2023-01-01T09:53:19.920Z,3.60
2023-01-01T09:55:56.324Z,3.28
2023-01-01T09:58:33.626Z,3.78
2023-01-01T10:01:10.829Z,3.28
2023-01-01T10:03:47.470Z,4.55
2023-01-01T10:06:24.753Z,3.78
2023-01-01T10:09:10.925Z,3.45
2023-01-01T10:11:48.071Z,3.72
2023-01-01T10:14:24.156Z,3.70
2023-01-01T10:16:57.711Z,3.80
2023-01-01T10:19:45.068Z,3.88
2023-01-01T10:22:22.707Z,3.45
2023-01-01T10:25:03.145Z,3.50
2023-01-01T10:27:42.252Z,3.50
2023-01-01T10:30:20.638Z,3.75
2023-01-01T10:32:57.047Z,4.40
2023-01-01T10:35:31.405Z,3.60
2023-01-01T10:38:01.637Z,3.30
2023-01-01T10:40:38.184Z,3.10
2023-01-01T10:43:13.280Z,4.03
2023-01-01T10:45:47.255Z,3.70
2023-01-01T10:48:26.921Z,3.08
2023-01-01T10:51:03.408Z,3.40
2023-01-01T10:53:37.259Z,3.70
2023-01-01T10:56:09.528Z,3.72
2023-01-01T10:59:10.651Z,3.50
2023-01-01T11:01:39.372Z,3.13
2023-01-01T11:04:26.620Z,3.90
2023-01-01T11:06:55.156Z,3.70
2023-01-01T11:10:02.029Z,3.80
2023-01-01T11:13:04.203Z,3.72
2023-01-01T11:15:41.695Z,3.58
2023-01-01T11:18:17.113Z,4.05
2023-01-01T11:21:00.651Z,3.80
2023-01-01T11:23:47.368Z,3.63
2023-01-01T11:26:24.685Z,4.13
2023-01-01T11:29:20.281Z,3.95
2023-01-01T11:31:57.008Z,4.10
2023-01-01T11:34:34.702Z,3.33
2023-01-01T11:37:35.878Z,3.60
2023-01-01T11:40:09.147Z,3.85
2023-01-01T11:42:48.473Z,3.25
2023-01-01T11:45:26.982Z,3.65
2023-01-01T11:47:58.508Z,3.10
2023-01-01T11:50:30.956Z,3.40
2023-01-01T11:53:20.201Z,3.45
2023-01-01T11:55:56.562Z,3.42
2023-01-01T11:58:40.521Z,3.55
2023-01-01T12:01:16.723Z,3.40
2023-01-01T12:04:03.372Z,3.58
2023-01-01T12:06:39.907Z,3.15
2023-01-01T12:09:18.647Z,4.10
2023-01-01T12:12:22.343Z,3.33
2023-01-01T12:15:03.767Z,3.90
2023-01-01T12:17:45.934Z,4.18
2023-01-01T12:20:22.535Z,3.17
2023-01-01T12:22:59.955Z,3.08
2023-01-01T12:25:44.041Z,3.13
2023-01-01T12:28:45.455Z,3.28
2023-01-01T12:31:23.265Z,3.55
2023-01-01T12:34:13.449Z,3.25
2023-01-01T12:36:52.016Z,3.63
2023-01-01T12:39:57.866Z,3.88
2023-01-01T12:42:38.593Z,3.85
2023-01-01T12:45:40.837Z,3.75
2023-01-01T12:48:43.508Z,2.95
2023-01-01T12:51:29.147Z,3.15
2023-01-01T12:54:21.511Z,3.35
2023-01-01T12:57:00.148Z,4.03
2023-01-01T12:59:44.550Z,3.53
2023-01-01T13:02:19.391Z,3.63
2023-01-01T13:04:56.476Z,3.95
2023-01-01T13:07:33.840Z,3.95
2023-01-01T13:10:09.966Z,3.60
2023-01-01T13:12:44.137Z,3.80
2023-01-01T13:15:46.145Z,3.47
2023-01-01T13:18:31.462Z,4.28
2023-01-01T13:21:07.005Z,4.15
2023-01-01T13:23:53.206Z,3.72
2023-01-01T13:30:33.142Z,4.03
2023-01-01T13:33:32.513Z,3.95
2023-01-01T13:36:32.895Z,4.80
2023-01-01T13:39:32.521Z,3.67
2023-01-01T13:42:02.224Z,3.40
2023-01-01T13:44:36.682Z,3.58
2023-01-01T13:47:34.411Z,3.97
2023-01-01T13:50:17.674Z,4.40
2023-01-01T13:52:59.245Z,3.80
2023-01-01T13:56:04.253Z,4.13
2023-01-01T13:58:52.213Z,4.32
2023-01-01T14:01:46.323Z,4.10
2023-01-01T14:04:34.201Z,4.28
2023-01-01T14:07:48.973Z,4.25
2023-01-01T14:10:21.179Z,4.28
2023-01-01T14:12:50.062Z,4.32
2023-01-01T14:15:25.844Z,3.85
2023-01-01T14:17:56.776Z,4.05
2023-01-01T14:20:31.431Z,4.10
2023-01-01T14:23:07.534Z,4.38
2023-01-01T14:25:36.551Z,3.97
2023-01-01T14:28:06.986Z,4.65
2023-01-01T14:30:38.096Z,3.88
2023-01-01T14:33:34.470Z,3.70
2023-01-01T14:36:07.192Z,4.05
2023-01-01T14:38:45.453Z,5.13
2023-01-01T14:41:30.744Z,4.30
2023-01-01T14:44:11.118Z,3.78
2023-01-01T14:46:42.346Z,3.70
2023-01-01T14:49:26.409Z,4.10
2023-01-01T14:51:58.640Z,4.60
2023-01-01T14:54:32.627Z,4.85
2023-01-01T14:57:01.823Z,5.18
2023-01-01T14:59:32.266Z,4.50
2023-01-01T15:02:21.698Z,5.28
2023-01-01T15:04:55.527Z,4.22
2023-01-01T15:07:27.953Z,4.20
2023-01-01T15:10:27.377Z,4.63
2023-01-01T15:12:58.360Z,3.80
2023-01-01T15:15:41.188Z,4.20
2023-01-01T15:18:38.395Z,4.82
2023-01-01T15:21:13.998Z,4.45
2023-01-01T15:23:52.398Z,4.57
2023-01-01T15:26:29.349Z,4.80
2023-01-01T15:29:17.345Z,4.82
2023-01-01T15:31:51.154Z,4.72
2023-01-01T15:34:24.893Z,5.25
2023-01-01T15:36:57.748Z,5.85
2023-01-01T15:39:26.834Z,4.30
2023-01-01T15:42:07.096Z,5.28
2023-01-01T15:44:48.097Z,5.22
2023-01-01T15:47:20.770Z,5.10
2023-01-01T15:49:51.646Z,4.63
2023-01-01T15:52:28.344Z,5.25
2023-01-01T15:55:01.077Z,4.80
2023-01-01T15:58:06.333Z,4.88
2023-01-01T16:01:05.346Z,5.43
2023-01-01T16:03:40.493Z,4.70
2023-01-01T16:06:19.474Z,4.60
2023-01-01T16:09:08.743Z,5.28
2023-01-01T16:11:37.125Z,5.68
2023-01-01T16:14:07.240Z,5.57
2023-01-01T16:16:36.366Z,5.75
2023-01-01T16:19:05.345Z,5.57
2023-01-01T16:21:42.553Z,6.35
2023-01-01T16:24:18.859Z,5.97
2023-01-01T16:26:47.971Z,6.20
2023-01-01T16:29:18.940Z,6.47
2023-01-01T16:31:48.988Z,6.40
2023-01-01T16:34:17.569Z,6.00
2023-01-01T16:36:46.841Z,6.47
2023-01-01T16:39:15.324Z,6.95
2023-01-01T16:41:45.855Z,6.72
2023-01-01T16:44:15.418Z,6.75
2023-01-01T16:46:50.534Z,6.90
2023-01-01T16:49:18.951Z,6.60
2023-01-01T16:51:50.685Z,6.25
2023-01-01T16:54:21.212Z,6.30
2023-01-01T16:56:51.995Z,6.07
2023-01-01T16:59:24.523Z,5.88
2023-01-01T17:01:57.830Z,6.45
2023-01-01T17:04:27.114Z,6.10
2023-01-01T17:06:55.857Z,6.55
2023-01-01T17:09:24.389Z,6.60
2023-01-01T17:11:53.689Z,6.68
2023-01-01T17:14:21.975Z,5.68
2023-01-01T17:16:51.863Z,5.75
2023-01-01T17:19:21.914Z,6.22
2023-01-01T17:21:50.857Z,5.95
2023-01-01T17:24:21.278Z,5.55
2023-01-01T17:26:59.088Z,6.60
2023-01-01T17:29:29.986Z,5.70
2023-01-01T17:31:58.464Z,5.70
2023-01-01T17:34:31.621Z,6.68
2023-01-01T17:37:00.048Z,6.45
2023-01-01T17:39:31.200Z,6.57
2023-01-01T17:42:01.827Z,7.28
2023-01-01T17:44:34.973Z,7.45
2023-01-01T17:47:10.043Z,7.38
2023-01-01T17:49:41.353Z,6.22
2023-01-01T17:52:10.138Z,6.60
2023-01-01T17:54:38.864Z,6.72
2023-01-01T17:57:10.621Z,7.10
2023-01-01T17:59:40.047Z,6.93
2023-01-01T18:02:13.608Z,7.40
2023-01-01T18:05:04.257Z,6.03
2023-01-01T18:07:32.756Z,6.82
2023-01-01T18:10:04.044Z,6.88
2023-01-01T18:12:35.344Z,6.47
2023-01-01T18:15:12.468Z,7.13
2023-01-01T18:18:05.641Z,7.13
2023-01-01T18:20:38.949Z,6.82
2023-01-01T18:23:07.765Z,7.47
2023-01-01T18:25:36.713Z,6.38
2023-01-01T18:28:10.898Z,7.47
2023-01-01T18:30:39.438Z,6.35
2023-01-01T18:33:10.800Z,6.90
2023-01-01T18:35:50.517Z,7.28
2023-01-01T18:38:21.125Z,6.32
2023-01-01T18:41:01.603Z,6.38
2023-01-01T18:43:31.576Z,8.05
2023-01-01T18:46:00.889Z,6.95
2023-01-01T18:48:31.315Z,6.70
2023-01-01T18:51:03.275Z,7.43
2023-01-01T18:53:33.164Z,7.53
2023-01-01T18:56:12.123Z,7.15
2023-01-01T18:58:42.840Z,6.53
2023-01-01T19:01:16.629Z,6.95
2023-01-01T19:03:47.787Z,7.68
2023-01-01T19:06:26.025Z,7.82
2023-01-01T19:09:01.583Z,7.50
2023-01-01T19:11:31.745Z,6.32
2023-01-01T19:14:07.125Z,7.43
2023-01-01T19:16:37.687Z,7.43
2023-01-01T19:19:16.612Z,7.78
2023-01-01T19:21:51.581Z,7.63
2023-01-01T19:24:26.590Z,7.45
2023-01-01T19:26:57.873Z,7.25
2023-01-01T19:29:33.380Z,7.70
2023-01-01T19:32:02.141Z,7.72
2023-01-01T19:34:31.180Z,7.85
2023-01-01T19:37:01.463Z,8.15
2023-01-01T19:39:32.772Z,7.47
2023-01-01T19:42:04.162Z,7.82
2023-01-01T19:44:33.753Z,7.20
2023-01-01T19:47:04.372Z,8.40
2023-01-01T19:49:32.999Z,8.80
2023-01-01T19:52:03.776Z,7.50
2023-01-01T19:54:32.349Z,8.07
2023-01-01T19:57:02.209Z,7.15
2023-01-01T19:59:33.363Z,7.93
2023-01-01T20:04:51.427Z,7.15
2023-01-01T20:07:21.503Z,7.43
2023-01-01T20:09:50.391Z,7.35
2023-01-01T20:12:19.069Z,8.05
2023-01-01T20:14:47.578Z,6.78
2023-01-01T20:17:18.027Z,7.57
2023-01-01T20:19:46.423Z,8.18
2023-01-01T20:22:15.117Z,8.32
2023-01-01T20:24:45.577Z,7.40
2023-01-01T20:27:17.820Z,8.05
2023-01-01T20:29:45.505Z,7.90
2023-01-01T20:32:15.751Z,7.90
2023-01-01T20:34:44.806Z,8.15
2023-01-01T20:37:30.521Z,8.05
2023-01-01T20:40:00.615Z,8.55
2023-01-01T20:42:28.965Z,8.50
2023-01-01T20:44:57.376Z,8.32
2023-01-01T20:47:25.855Z,8.52
2023-01-01T20:49:54.341Z,8.23
2023-01-01T20:52:22.817Z,8.40
2023-01-01T20:54:51.260Z,8.38
2023-01-01T20:57:21.111Z,8.57
2023-01-01T20:59:49.539Z,8.90
2023-01-01T21:02:18.046Z,9.15
2023-01-01T21:04:46.667Z,9.55
2023-01-01T21:07:15.103Z,8.70
2023-01-01T21:09:43.632Z,8.95
2023-01-01T21:12:12.246Z,9.15
2023-01-01T21:14:45.365Z,9.35
2023-01-01T21:17:22.284Z,8.88
2023-01-01T21:19:52.172Z,9.40
2023-01-01T21:22:20.618Z,8.63
2023-01-01T21:24:54.072Z,8.18
2023-01-01T21:27:30.649Z,9.18
2023-01-01T21:30:00.615Z,8.32
2023-01-01T21:32:37.608Z,9.02
2023-01-01T21:35:17.166Z,10.13
2023-01-01T21:37:49.965Z,9.25
2023-01-01T21:40:40.376Z,9.30
2023-01-01T21:43:29.437Z,10.07
2023-01-01T21:46:13.415Z,10.40
2023-01-01T21:48:43.647Z,10.05
2023-01-01T21:51:20.722Z,9.68
2023-01-01T21:53:49.692Z,10.18
2023-01-01T21:56:29.641Z,9.82
2023-01-01T21:59:21.366Z,10.15
2023-01-01T22:01:51.681Z,9.95
2023-01-01T22:04:22.134Z,9.55
2023-01-01T22:06:52.646Z,10.65
2023-01-01T22:09:24.490Z,9.80
2023-01-01T22:11:54.864Z,9.88
2023-01-01T22:14:26.715Z,10.32
2023-01-01T22:16:57.208Z,10.18
2023-01-01T22:19:29.033Z,9.73
2023-01-01T22:21:57.509Z,10.00
2023-01-01T22:24:34.439Z,10.45
2023-01-01T22:27:19.260Z,10.27
2023-01-01T22:29:47.977Z,10.93
2023-01-01T22:32:22.719Z,11.80
2023-01-01T22:34:51.997Z,10.27
2023-01-01T22:37:23.108Z,11.20
2023-01-01T22:39:55.910Z,11.35
2023-01-01T22:42:24.362Z,10.43
2023-01-01T22:44:59.310Z,11.85
2023-01-01T22:47:34.905Z,11.05
2023-01-01T22:50:04.311Z,11.75
2023-01-01T22:52:32.971Z,11.40
2023-01-01T22:55:01.374Z,11.07
2023-01-01T22:57:29.898Z,10.50
2023-01-01T22:59:58.197Z,11.63
2023-01-01T23:02:28.408Z,10.90
2023-01-01T23:04:56.798Z,11.40
2023-01-01T23:07:25.493Z,10.65
2023-01-01T23:09:53.925Z,11.25
2023-01-01T23:12:22.357Z,11.43
2023-01-01T23:15:08.382Z,9.77
2023-01-01T23:17:38.159Z,10.75
2023-01-01T23:20:07.986Z,11.77
2023-01-01T23:22:40.251Z,11.23
2023-01-01T23:25:12.124Z,10.18
2023-01-01T23:27:41.071Z,10.45
2023-01-01T23:30:10.834Z,9.93
2023-01-01T23:32:41.176Z,9.63
2023-01-01T23:35:10.835Z,10.10
2023-01-01T23:37:39.967Z,10.60
2023-01-01T23:40:09.657Z,10.35
2023-01-01T23:42:38.128Z,11.38
2023-01-01T23:45:07.807Z,10.48
2023-01-01T23:47:36.307Z,10.07
2023-01-01T23:50:07.054Z,10.13
2023-01-01T23:52:35.781Z,10.10
2023-01-01T23:55:04.277Z,10.82
2023-01-01T23:57:32.684Z,8.77
